sensor_id;sensor_type;location;lat;lon;timestamp;pressure;altitude;pressure_sealevel;temperature;humidity
61086;BME280;46967;48.876;2.136;2023-03-22T00:00:34;101056.16;;;10.66;83.89
61086;BME280;46967;48.876;2.136;2023-03-22T00:03:00;101061.47;;;10.62;84.29
61086;BME280;46967;48.876;2.136;2023-03-22T00:05:25;101050.31;;;10.58;84.29
61086;BME280;46967;48.876;2.136;2023-03-22T00:07:51;101044.25;;;10.58;84.34
61086;BME280;46967;48.876;2.136;2023-03-22T00:10:23;101035.59;;;10.59;84.37
61086;BME280;46967;48.876;2.136;2023-03-22T00:12:50;101040.06;;;10.54;84.65
61086;BME280;46967;48.876;2.136;2023-03-22T00:15:16;101037.56;;;10.49;84.63
61086;BME280;46967;48.876;2.136;2023-03-22T00:17:41;101034.91;;;10.52;84.61
61086;BME280;46967;48.876;2.136;2023-03-22T00:20:09;101029.78;;;10.49;84.87
61086;BME280;46967;48.876;2.136;2023-03-22T00:22:36;101036.72;;;10.48;85.23
61086;BME280;46967;48.876;2.136;2023-03-22T00:25:02;101019.56;;;10.43;85.56
61086;BME280;46967;48.876;2.136;2023-03-22T00:27:27;101017.09;;;10.38;85.83
61086;BME280;46967;48.876;2.136;2023-03-22T00:29:52;101011.31;;;10.25;87.05
61086;BME280;46967;48.876;2.136;2023-03-22T00:32:18;101015.63;;;10.26;86.97
61086;BME280;46967;48.876;2.136;2023-03-22T00:34:43;101011.38;;;10.24;87.49
61086;BME280;46967;48.876;2.136;2023-03-22T00:37:09;101013.13;;;10.23;87.85
61086;BME280;46967;48.876;2.136;2023-03-22T00:39:34;101010.59;;;10.20;88.38
61086;BME280;46967;48.876;2.136;2023-03-22T00:41:59;101006.44;;;10.13;88.64
61086;BME280;46967;48.876;2.136;2023-03-22T00:44:25;101000.44;;;10.11;88.74
61086;BME280;46967;48.876;2.136;2023-03-22T00:46:50;100989.31;;;10.07;89.17
61086;BME280;46967;48.876;2.136;2023-03-22T00:49:16;100990.38;;;9.98;89.76
61086;BME280;46967;48.876;2.136;2023-03-22T00:51:41;100979.03;;;10.03;89.43
61086;BME280;46967;48.876;2.136;2023-03-22T00:54:07;100973.84;;;10.03;89.53
61086;BME280;46967;48.876;2.136;2023-03-22T00:56:32;100977.28;;;10.03;89.55
61086;BME280;46967;48.876;2.136;2023-03-22T00:58:58;100967.09;;;9.95;89.69
61086;BME280;46967;48.876;2.136;2023-03-22T01:01:23;100970.69;;;9.91;89.82
61086;BME280;46967;48.876;2.136;2023-03-22T01:03:49;100967.84;;;10.01;89.49
61086;BME280;46967;48.876;2.136;2023-03-22T01:06:15;100964.44;;;9.98;89.39
61086;BME280;46967;48.876;2.136;2023-03-22T01:08:40;100965.28;;;9.99;89.64
61086;BME280;46967;48.876;2.136;2023-03-22T01:11:06;100967.03;;;9.98;89.72
61086;BME280;46967;48.876;2.136;2023-03-22T01:13:33;100958.47;;;9.95;89.76
61086;BME280;46967;48.876;2.136;2023-03-22T01:15:59;100955.78;;;10.00;89.65
61086;BME280;46967;48.876;2.136;2023-03-22T01:18:24;100948.16;;;9.93;89.67
61086;BME280;46967;48.876;2.136;2023-03-22T01:20:50;100944.72;;;9.93;89.83
61086;BME280;46967;48.876;2.136;2023-03-22T01:23:15;100935.13;;;9.96;89.67
61086;BME280;46967;48.876;2.136;2023-03-22T01:25:41;100926.72;;;9.87;90.10
61086;BME280;46967;48.876;2.136;2023-03-22T01:28:06;100925.19;;;9.78;90.61
61086;BME280;46967;48.876;2.136;2023-03-22T01:30:32;100922.56;;;9.79;90.71
61086;BME280;46967;48.876;2.136;2023-03-22T01:32:58;100912.31;;;9.75;90.87
61086;BME280;46967;48.876;2.136;2023-03-22T01:35:24;100914.09;;;9.73;91.01
61086;BME280;46967;48.876;2.136;2023-03-22T01:37:49;100912.38;;;9.72;91.18
61086;BME280;46967;48.876;2.136;2023-03-22T01:40:14;100907.88;;;9.78;90.99
61086;BME280;46967;48.876;2.136;2023-03-22T01:42:40;100898.66;;;9.68;91.34
61086;BME280;46967;48.876;2.136;2023-03-22T01:47:38;100903.06;;;9.65;91.64
61086;BME280;46967;48.876;2.136;2023-03-22T01:50:05;100898.63;;;9.70;91.33
61086;BME280;46967;48.876;2.136;2023-03-22T01:52:30;100896.06;;;9.68;91.45
61086;BME280;46967;48.876;2.136;2023-03-22T01:54:56;100895.28;;;9.65;91.74
61086;BME280;46967;48.876;2.136;2023-03-22T01:57:22;100893.69;;;9.59;92.14
61086;BME280;46967;48.876;2.136;2023-03-22T01:59:47;100886.06;;;9.53;92.75
61086;BME280;46967;48.876;2.136;2023-03-22T02:02:15;100879.16;;;9.53;92.84
61086;BME280;46967;48.876;2.136;2023-03-22T02:04:43;100867.13;;;9.51;93.36
61086;BME280;46967;48.876;2.136;2023-03-22T02:07:13;100859.53;;;9.43;93.91
61086;BME280;46967;48.876;2.136;2023-03-22T02:09:41;100857.78;;;9.43;93.83
61086;BME280;46967;48.876;2.136;2023-03-22T02:12:27;100868.78;;;9.53;93.46
61086;BME280;46967;48.876;2.136;2023-03-22T02:29:35;100852.63;;;9.42;94.35
61086;BME280;46967;48.876;2.136;2023-03-22T02:45:21;100863.53;;;9.56;93.20
61086;BME280;46967;48.876;2.136;2023-03-22T02:48:02;100861.94;;;9.51;93.81
61086;BME280;46967;48.876;2.136;2023-03-22T02:50:54;100861.97;;;9.49;94.28
61086;BME280;46967;48.876;2.136;2023-03-22T02:56:02;100868.91;;;9.49;94.36
61086;BME280;46967;48.876;2.136;2023-03-22T02:58:35;100874.63;;;9.61;94.11
61086;BME280;46967;48.876;2.136;2023-03-22T03:01:06;100873.22;;;9.48;94.82
61086;BME280;46967;48.876;2.136;2023-03-22T03:03:34;100868.03;;;9.48;95.16
61086;BME280;46967;48.876;2.136;2023-03-22T03:06:07;100860.19;;;9.51;94.83
61086;BME280;46967;48.876;2.136;2023-03-22T03:08:36;100866.94;;;9.58;94.56
61086;BME280;46967;48.876;2.136;2023-03-22T03:11:02;100865.03;;;9.65;93.81
61086;BME280;46967;48.876;2.136;2023-03-22T03:13:27;100857.13;;;9.71;93.95
61086;BME280;46967;48.876;2.136;2023-03-22T03:15:55;100857.22;;;9.67;94.07
61086;BME280;46967;48.876;2.136;2023-03-22T03:34:01;100857.72;;;9.81;93.12
61086;BME280;46967;48.876;2.136;2023-03-22T03:36:32;100850.19;;;9.72;93.21
61086;BME280;46967;48.876;2.136;2023-03-22T03:38:58;100846.56;;;9.79;92.78
61086;BME280;46967;48.876;2.136;2023-03-22T03:41:27;100834.31;;;9.84;92.60
61086;BME280;46967;48.876;2.136;2023-03-22T03:43:55;100833.41;;;9.87;91.91
61086;BME280;46967;48.876;2.136;2023-03-22T03:46:22;100841.84;;;9.93;91.89
61086;BME280;46967;48.876;2.136;2023-03-22T03:48:49;100826.47;;;9.87;91.08
61086;BME280;46967;48.876;2.136;2023-03-22T03:51:15;100827.69;;;9.74;92.03
61086;BME280;46967;48.876;2.136;2023-03-22T03:53:40;100826.63;;;9.81;91.47
61086;BME280;46967;48.876;2.136;2023-03-22T03:56:06;100835.22;;;9.82;91.33
61086;BME280;46967;48.876;2.136;2023-03-22T03:58:32;100838.00;;;9.75;91.81
61086;BME280;46967;48.876;2.136;2023-03-22T04:00:57;100849.19;;;9.77;91.75
61086;BME280;46967;48.876;2.136;2023-03-22T04:03:23;100839.34;;;9.90;90.74
61086;BME280;46967;48.876;2.136;2023-03-22T04:05:48;100837.59;;;9.91;90.41
61086;BME280;46967;48.876;2.136;2023-03-22T04:08:13;100836.06;;;9.84;91.04
61086;BME280;46967;48.876;2.136;2023-03-22T04:10:39;100827.41;;;9.83;90.98
61086;BME280;46967;48.876;2.136;2023-03-22T04:13:04;100832.84;;;9.75;91.42
61086;BME280;46967;48.876;2.136;2023-03-22T04:15:30;100823.22;;;9.79;91.08
61086;BME280;46967;48.876;2.136;2023-03-22T04:17:56;100820.50;;;9.84;90.70
61086;BME280;46967;48.876;2.136;2023-03-22T04:20:22;100823.00;;;9.88;90.64
61086;BME280;46967;48.876;2.136;2023-03-22T04:22:47;100821.28;;;9.87;90.74
61086;BME280;46967;48.876;2.136;2023-03-22T04:25:14;100829.84;;;9.89;89.93
61086;BME280;46967;48.876;2.136;2023-03-22T04:27:42;100807.50;;;9.85;90.16
61086;BME280;46967;48.876;2.136;2023-03-22T04:30:12;100808.31;;;9.87;90.29
61086;BME280;46967;48.876;2.136;2023-03-22T04:32:45;100805.88;;;9.81;90.18
61086;BME280;46967;48.876;2.136;2023-03-22T04:35:12;100802.50;;;9.79;90.36
61086;BME280;46967;48.876;2.136;2023-03-22T04:37:37;100805.00;;;9.82;90.24
61086;BME280;46967;48.876;2.136;2023-03-22T04:40:03;100800.56;;;9.86;89.95
61086;BME280;46967;48.876;2.136;2023-03-22T04:42:31;100813.75;;;9.78;90.31
61086;BME280;46967;48.876;2.136;2023-03-22T04:44:57;100814.53;;;9.80;89.87
61086;BME280;46967;48.876;2.136;2023-03-22T04:47:22;100806.03;;;9.75;90.38
61086;BME280;46967;48.876;2.136;2023-03-22T04:49:48;100797.31;;;9.79;90.22
61086;BME280;46967;48.876;2.136;2023-03-22T04:52:13;100799.81;;;9.82;90.02
61086;BME280;46967;48.876;2.136;2023-03-22T04:54:39;100802.88;;;9.64;91.24
61086;BME280;46967;48.876;2.136;2023-03-22T04:57:05;100795.22;;;9.59;91.39
61086;BME280;46967;48.876;2.136;2023-03-22T04:59:31;100791.53;;;9.69;91.02
61086;BME280;46967;48.876;2.136;2023-03-22T05:01:56;100773.63;;;9.60;91.57
61086;BME280;46967;48.876;2.136;2023-03-22T05:04:22;100776.38;;;9.54;91.76
61086;BME280;46967;48.876;2.136;2023-03-22T05:06:47;100775.22;;;9.64;91.34
61086;BME280;46967;48.876;2.136;2023-03-22T05:09:13;100791.63;;;9.65;91.41
61086;BME280;46967;48.876;2.136;2023-03-22T05:11:39;100790.09;;;9.57;91.79
61086;BME280;46967;48.876;2.136;2023-03-22T05:14:05;100792.59;;;9.60;91.53
61086;BME280;46967;48.876;2.136;2023-03-22T05:16:31;100796.31;;;9.50;92.44
61086;BME280;46967;48.876;2.136;2023-03-22T05:18:56;100785.94;;;9.52;92.58
61086;BME280;46967;48.876;2.136;2023-03-22T05:21:23;100791.00;;;9.56;92.49
61086;BME280;46967;48.876;2.136;2023-03-22T05:23:53;100790.88;;;9.59;92.68
61086;BME280;46967;48.876;2.136;2023-03-22T05:26:19;100790.09;;;9.57;92.83
61086;BME280;46967;48.876;2.136;2023-03-22T05:28:45;100795.31;;;9.56;93.25
61086;BME280;46967;48.876;2.136;2023-03-22T05:31:11;100789.19;;;9.58;93.19
61086;BME280;46967;48.876;2.136;2023-03-22T05:33:39;100789.25;;;9.57;93.55
61086;BME280;46967;48.876;2.136;2023-03-22T05:36:06;100786.56;;;9.60;93.25
61086;BME280;46967;48.876;2.136;2023-03-22T05:38:32;100793.41;;;9.63;93.25
61086;BME280;46967;48.876;2.136;2023-03-22T05:40:57;100801.81;;;9.72;93.16
61086;BME280;46967;48.876;2.136;2023-03-22T05:43:23;100799.25;;;9.71;92.97
61086;BME280;46967;48.876;2.136;2023-03-22T05:45:48;100798.53;;;9.64;93.56
61086;BME280;46967;48.876;2.136;2023-03-22T05:48:13;100798.47;;;9.67;93.48
61086;BME280;46967;48.876;2.136;2023-03-22T05:50:39;100788.06;;;9.69;93.34
61086;BME280;46967;48.876;2.136;2023-03-22T05:53:05;100787.19;;;9.70;93.52
61086;BME280;46967;48.876;2.136;2023-03-22T05:55:30;100777.44;;;9.78;93.08
61086;BME280;46967;48.876;2.136;2023-03-22T05:57:59;100779.13;;;9.81;92.86
61086;BME280;46967;48.876;2.136;2023-03-22T06:00:26;100776.53;;;9.81;92.82
61086;BME280;46967;48.876;2.136;2023-03-22T06:02:52;100781.63;;;9.84;92.54
61086;BME280;46967;48.876;2.136;2023-03-22T06:05:21;100773.97;;;9.79;92.77
61086;BME280;46967;48.876;2.136;2023-03-22T06:07:47;100781.88;;;9.74;93.29
61086;BME280;46967;48.876;2.136;2023-03-22T06:10:13;100776.50;;;9.82;92.81
61086;BME280;46967;48.876;2.136;2023-03-22T06:12:39;100780.97;;;9.77;93.06
61086;BME280;46967;48.876;2.136;2023-03-22T06:15:06;100776.56;;;9.79;93.13
61086;BME280;46967;48.876;2.136;2023-03-22T06:17:32;100790.25;;;9.84;92.84
61086;BME280;46967;48.876;2.136;2023-03-22T06:19:57;100790.97;;;9.89;92.48
61086;BME280;46967;48.876;2.136;2023-03-22T06:22:22;100790.16;;;9.87;92.73
61086;BME280;46967;48.876;2.136;2023-03-22T06:24:48;100796.19;;;9.88;92.80
61086;BME280;46967;48.876;2.136;2023-03-22T06:27:14;100802.16;;;9.91;92.57
61086;BME280;46967;48.876;2.136;2023-03-22T06:29:40;100817.53;;;9.97;92.44
61086;BME280;46967;48.876;2.136;2023-03-22T06:32:06;100820.91;;;10.01;92.17
61086;BME280;46967;48.876;2.136;2023-03-22T06:34:32;100821.19;;;9.90;92.86
61086;BME280;46967;48.876;2.136;2023-03-22T06:36:57;100828.78;;;9.98;92.68
61086;BME280;46967;48.876;2.136;2023-03-22T06:39:23;100832.91;;;10.04;92.69
61086;BME280;46967;48.876;2.136;2023-03-22T06:41:48;100831.03;;;10.10;92.65
61086;BME280;46967;48.876;2.136;2023-03-22T06:44:14;100840.59;;;10.08;92.36
61086;BME280;46967;48.876;2.136;2023-03-22T06:46:40;100839.75;;;10.08;92.74
61086;BME280;46967;48.876;2.136;2023-03-22T06:49:06;100843.06;;;10.13;92.18
61086;BME280;46967;48.876;2.136;2023-03-22T06:51:32;100849.00;;;10.16;92.33
61086;BME280;46967;48.876;2.136;2023-03-22T06:53:58;100847.22;;;10.19;92.33
61086;BME280;46967;48.876;2.136;2023-03-22T06:56:24;100854.03;;;10.23;92.15
61086;BME280;46967;48.876;2.136;2023-03-22T06:58:49;100838.28;;;10.29;91.69
61086;BME280;46967;48.876;2.136;2023-03-22T07:01:17;100844.53;;;10.23;92.03
61086;BME280;46967;48.876;2.136;2023-03-22T07:03:43;100842.59;;;10.30;91.71
61086;BME280;46967;48.876;2.136;2023-03-22T07:06:10;100846.72;;;10.37;91.71
61086;BME280;46967;48.876;2.136;2023-03-22T07:08:35;100843.22;;;10.40;91.21
61086;BME280;46967;48.876;2.136;2023-03-22T07:11:02;100843.25;;;10.38;91.50
61086;BME280;46967;48.876;2.136;2023-03-22T07:13:28;100842.25;;;10.44;91.11
61086;BME280;46967;48.876;2.136;2023-03-22T07:16:00;100837.16;;;10.41;91.33
61086;BME280;46967;48.876;2.136;2023-03-22T07:18:27;100836.22;;;10.42;91.09
61086;BME280;46967;48.876;2.136;2023-03-22T07:20:53;100838.16;;;10.35;91.46
61086;BME280;46967;48.876;2.136;2023-03-22T07:23:18;100837.09;;;10.42;91.20
61086;BME280;46967;48.876;2.136;2023-03-22T07:25:45;100844.84;;;10.44;91.28
61086;BME280;46967;48.876;2.136;2023-03-22T07:28:10;100836.50;;;10.32;91.58
61086;BME280;46967;48.876;2.136;2023-03-22T07:30:37;100837.16;;;10.41;91.54
61086;BME280;46967;48.876;2.136;2023-03-22T07:33:06;100841.50;;;10.39;91.65
61086;BME280;46967;48.876;2.136;2023-03-22T07:35:31;100851.72;;;10.45;92.13
61086;BME280;46967;48.876;2.136;2023-03-22T07:37:57;100855.22;;;10.44;92.55
61086;BME280;46967;48.876;2.136;2023-03-22T07:40:23;100856.94;;;10.43;93.14
61086;BME280;46967;48.876;2.136;2023-03-22T07:42:49;100848.31;;;10.43;93.18
61086;BME280;46967;48.876;2.136;2023-03-22T07:45:16;100861.22;;;10.46;93.29
61086;BME280;46967;48.876;2.136;2023-03-22T07:47:42;100864.50;;;10.51;93.82
61086;BME280;46967;48.876;2.136;2023-03-22T07:50:08;100861.13;;;10.49;94.19
61086;BME280;46967;48.876;2.136;2023-03-22T07:52:36;100865.28;;;10.55;93.94
61086;BME280;46967;48.876;2.136;2023-03-22T07:55:02;100859.91;;;10.61;93.47
61086;BME280;46967;48.876;2.136;2023-03-22T07:57:27;100858.94;;;10.65;93.33
61086;BME280;46967;48.876;2.136;2023-03-22T07:59:52;100864.84;;;10.70;92.84
61086;BME280;46967;48.876;2.136;2023-03-22T08:02:18;100877.00;;;10.68;93.39
61086;BME280;46967;48.876;2.136;2023-03-22T08:04:43;100864.22;;;10.62;93.84
61086;BME280;46967;48.876;2.136;2023-03-22T08:07:08;100868.09;;;10.77;93.32
61086;BME280;46967;48.876;2.136;2023-03-22T08:09:35;100871.81;;;10.68;93.64
61086;BME280;46967;48.876;2.136;2023-03-22T08:12:00;100865.59;;;10.74;93.39
61086;BME280;46967;48.876;2.136;2023-03-22T08:14:26;100869.00;;;10.76;93.95
61086;BME280;46967;48.876;2.136;2023-03-22T08:16:51;100874.16;;;10.77;93.50
61086;BME280;46967;48.876;2.136;2023-03-22T08:19:16;100873.41;;;10.72;94.31
61086;BME280;46967;48.876;2.136;2023-03-22T08:21:42;100860.56;;;10.69;94.86
61086;BME280;46967;48.876;2.136;2023-03-22T08:24:07;100872.53;;;10.73;94.28
61086;BME280;46967;48.876;2.136;2023-03-22T08:26:33;100875.94;;;10.75;94.64
61086;BME280;46967;48.876;2.136;2023-03-22T08:28:58;100877.41;;;10.84;94.79
61086;BME280;46967;48.876;2.136;2023-03-22T08:31:24;100878.28;;;10.83;95.43
61086;BME280;46967;48.876;2.136;2023-03-22T08:33:50;100872.31;;;10.81;94.22
61086;BME280;46967;48.876;2.136;2023-03-22T08:36:18;100867.16;;;10.79;96.05
61086;BME280;46967;48.876;2.136;2023-03-22T08:38:44;100860.06;;;10.84;95.95
61086;BME280;46967;48.876;2.136;2023-03-22T08:41:11;100857.66;;;10.78;96.03
61086;BME280;46967;48.876;2.136;2023-03-22T08:43:37;100874.19;;;10.76;97.06
61086;BME280;46967;48.876;2.136;2023-03-22T08:46:02;100874.03;;;10.82;96.34
61086;BME280;46967;48.876;2.136;2023-03-22T08:48:28;100868.03;;;10.78;95.97
61086;BME280;46967;48.876;2.136;2023-03-22T08:50:55;100860.38;;;10.74;96.68
61086;BME280;46967;48.876;2.136;2023-03-22T08:53:21;100853.78;;;10.63;97.63
61086;BME280;46967;48.876;2.136;2023-03-22T08:55:47;100846.00;;;10.63;98.07
61086;BME280;46967;48.876;2.136;2023-03-22T08:58:13;100849.44;;;10.64;98.55
61086;BME280;46967;48.876;2.136;2023-03-22T09:00:40;100854.09;;;10.52;99.74
61086;BME280;46967;48.876;2.136;2023-03-22T09:03:06;100850.47;;;10.58;99.45
61086;BME280;46967;48.876;2.136;2023-03-22T09:05:31;100840.91;;;10.60;99.71
61086;BME280;46967;48.876;2.136;2023-03-22T09:07:56;100832.44;;;10.54;100.00
61086;BME280;46967;48.876;2.136;2023-03-22T09:10:22;100848.63;;;10.62;100.00
61086;BME280;46967;48.876;2.136;2023-03-22T09:12:48;100861.53;;;10.65;100.00
61086;BME280;46967;48.876;2.136;2023-03-22T09:15:13;100851.28;;;10.60;100.00
61086;BME280;46967;48.876;2.136;2023-03-22T09:17:39;100852.94;;;10.63;100.00
61086;BME280;46967;48.876;2.136;2023-03-22T09:20:05;100855.41;;;10.67;100.00
61086;BME280;46967;48.876;2.136;2023-03-22T09:22:31;100849.84;;;10.50;100.00
61086;BME280;46967;48.876;2.136;2023-03-22T09:24:56;100839.13;;;10.61;100.00
61086;BME280;46967;48.876;2.136;2023-03-22T09:27:22;100843.97;;;10.73;100.00
61086;BME280;46967;48.876;2.136;2023-03-22T09:29:47;100841.72;;;10.91;100.00
61086;BME280;46967;48.876;2.136;2023-03-22T09:32:16;100837.50;;;10.88;100.00
61086;BME280;46967;48.876;2.136;2023-03-22T09:34:41;100838.28;;;10.90;100.00
61086;BME280;46967;48.876;2.136;2023-03-22T09:37:06;100844.19;;;10.95;100.00
61086;BME280;46967;48.876;2.136;2023-03-22T09:39:32;100847.00;;;10.87;100.00
61086;BME280;46967;48.876;2.136;2023-03-22T09:41:59;100839.88;;;10.94;100.00
61086;BME280;46967;48.876;2.136;2023-03-22T09:44:33;100833.00;;;10.93;100.00
61086;BME280;46967;48.876;2.136;2023-03-22T09:47:02;100836.25;;;11.00;100.00
61086;BME280;46967;48.876;2.136;2023-03-22T09:49:33;100812.88;;;11.00;100.00
61086;BME280;46967;48.876;2.136;2023-03-22T09:52:00;100811.31;;;10.94;100.00
61086;BME280;46967;48.876;2.136;2023-03-22T09:54:34;100815.75;;;10.91;100.00
61086;BME280;46967;48.876;2.136;2023-03-22T09:59:45;100801.28;;;10.83;100.00
61086;BME280;46967;48.876;2.136;2023-03-22T10:10:37;100811.47;;;11.16;100.00
61086;BME280;46967;48.876;2.136;2023-03-22T10:13:11;100814.09;;;11.16;100.00
61086;BME280;46967;48.876;2.136;2023-03-22T10:15:43;100818.63;;;11.10;100.00
61086;BME280;46967;48.876;2.136;2023-03-22T10:18:19;100804.72;;;11.12;100.00
61086;BME280;46967;48.876;2.136;2023-03-22T10:20:59;100803.66;;;11.18;100.00
61086;BME280;46967;48.876;2.136;2023-03-22T10:23:45;100797.31;;;11.27;100.00
61086;BME280;46967;48.876;2.136;2023-03-22T10:26:17;100777.31;;;11.29;100.00
61086;BME280;46967;48.876;2.136;2023-03-22T10:28:47;100790.13;;;11.35;99.85
61086;BME280;46967;48.876;2.136;2023-03-22T10:31:14;100782.81;;;11.46;100.00
61086;BME280;46967;48.876;2.136;2023-03-22T10:33:53;100784.56;;;11.46;100.00
61086;BME280;46967;48.876;2.136;2023-03-22T10:36:22;100783.53;;;11.50;99.24
61086;BME280;46967;48.876;2.136;2023-03-22T10:38:52;100780.09;;;11.49;97.49
61086;BME280;46967;48.876;2.136;2023-03-22T10:41:19;100774.75;;;11.54;97.66
61086;BME280;46967;48.876;2.136;2023-03-22T10:43:49;100770.94;;;11.64;97.01
61086;BME280;46967;48.876;2.136;2023-03-22T10:46:20;100775.97;;;11.69;97.50
61086;BME280;46967;48.876;2.136;2023-03-22T10:48:55;100772.16;;;11.79;97.79
61086;BME280;46967;48.876;2.136;2023-03-22T10:51:27;100785.63;;;11.90;95.10
61086;BME280;46967;48.876;2.136;2023-03-22T10:53:54;100784.59;;;11.96;95.04
61086;BME280;46967;48.876;2.136;2023-03-22T10:56:22;100769.59;;;12.03;94.66
61086;BME280;46967;48.876;2.136;2023-03-22T10:58:49;100760.56;;;12.13;93.94
61086;BME280;46967;48.876;2.136;2023-03-22T11:01:24;100765.97;;;12.30;93.16
61086;BME280;46967;48.876;2.136;2023-03-22T11:03:53;100757.09;;;12.36;91.40
61086;BME280;46967;48.876;2.136;2023-03-22T11:06:25;100765.22;;;12.50;91.31
61086;BME280;46967;48.876;2.136;2023-03-22T11:09:21;100771.09;;;12.56;91.05
61086;BME280;46967;48.876;2.136;2023-03-22T11:11:55;100765.16;;;12.52;90.30
61086;BME280;46967;48.876;2.136;2023-03-22T11:14:34;100764.09;;;12.58;89.67
61086;BME280;46967;48.876;2.136;2023-03-22T11:17:07;100767.66;;;12.55;90.16
61086;BME280;46967;48.876;2.136;2023-03-22T11:19:48;100756.88;;;12.64;90.72
61086;BME280;46967;48.876;2.136;2023-03-22T11:22:26;100749.91;;;12.65;89.00
61086;BME280;46967;48.876;2.136;2023-03-22T11:24:55;100746.41;;;12.66;89.98
61086;BME280;46967;48.876;2.136;2023-03-22T11:29:51;100750.03;;;12.62;87.77
61086;BME280;46967;48.876;2.136;2023-03-22T11:32:29;100742.75;;;12.70;89.43
61086;BME280;46967;48.876;2.136;2023-03-22T11:35:09;100750.47;;;12.73;87.36
61086;BME280;46967;48.876;2.136;2023-03-22T11:37:49;100746.84;;;12.77;87.96
61086;BME280;46967;48.876;2.136;2023-03-22T11:40:24;100749.19;;;12.83;87.60
61086;BME280;46967;48.876;2.136;2023-03-22T11:42:55;100744.22;;;12.99;85.89
61086;BME280;46967;48.876;2.136;2023-03-22T11:45:30;100748.47;;;13.22;85.87
61086;BME280;46967;48.876;2.136;2023-03-22T11:48:01;100742.72;;;13.36;83.38
61086;BME280;46967;48.876;2.136;2023-03-22T11:50:30;100759.25;;;13.35;83.67
61086;BME280;46967;48.876;2.136;2023-03-22T11:52:56;100745.91;;;13.21;83.30
61086;BME280;46967;48.876;2.136;2023-03-22T11:55:25;100756.84;;;13.31;83.71
61086;BME280;46967;48.876;2.136;2023-03-22T11:57:54;100748.00;;;13.35;84.12
61086;BME280;46967;48.876;2.136;2023-03-22T12:00:26;100760.69;;;13.43;82.71
61086;BME280;46967;48.876;2.136;2023-03-22T12:03:14;100752.09;;;13.40;82.20
61086;BME280;46967;48.876;2.136;2023-03-22T12:05:42;100752.59;;;13.28;83.27
61086;BME280;46967;48.876;2.136;2023-03-22T12:08:27;100757.34;;;13.18;84.35
61086;BME280;46967;48.876;2.136;2023-03-22T12:11:09;100751.06;;;13.22;82.69
61086;BME280;46967;48.876;2.136;2023-03-22T12:16:11;100738.09;;;13.21;82.73
61086;BME280;46967;48.876;2.136;2023-03-22T12:21:30;100725.72;;;13.48;81.60
61086;BME280;46967;48.876;2.136;2023-03-22T12:23:58;100717.59;;;13.54;80.92
61086;BME280;46967;48.876;2.136;2023-03-22T12:26:26;100721.50;;;13.65;80.91
61086;BME280;46967;48.876;2.136;2023-03-22T12:29:05;100705.34;;;13.77;80.65
61086;BME280;46967;48.876;2.136;2023-03-22T12:31:37;100708.50;;;13.84;80.19
61086;BME280;46967;48.876;2.136;2023-03-22T12:34:17;100714.50;;;13.86;79.71
61086;BME280;46967;48.876;2.136;2023-03-22T12:36:49;100703.16;;;13.87;79.72
61086;BME280;46967;48.876;2.136;2023-03-22T12:39:25;100693.13;;;13.97;80.19
61086;BME280;46967;48.876;2.136;2023-03-22T12:41:56;100685.94;;;14.02;78.62
61086;BME280;46967;48.876;2.136;2023-03-22T12:44:28;100691.75;;;14.08;78.70
61086;BME280;46967;48.876;2.136;2023-03-22T12:47:14;100703.78;;;14.11;77.54
61086;BME280;46967;48.876;2.136;2023-03-22T12:49:55;100704.06;;;14.05;78.10
61086;BME280;46967;48.876;2.136;2023-03-22T12:52:29;100700.91;;;13.98;79.16
61086;BME280;46967;48.876;2.136;2023-03-22T12:54:57;100691.56;;;14.11;77.79
61086;BME280;46967;48.876;2.136;2023-03-22T12:57:24;100690.31;;;14.20;77.38
61086;BME280;46967;48.876;2.136;2023-03-22T12:59:52;100690.75;;;14.11;77.83
61086;BME280;46967;48.876;2.136;2023-03-22T13:04:53;100688.47;;;14.22;76.60
61086;BME280;46967;48.876;2.136;2023-03-22T13:09:46;100684.88;;;14.25;77.17
61086;BME280;46967;48.876;2.136;2023-03-22T13:30:35;100659.66;;;14.43;76.48
61086;BME280;46967;48.876;2.136;2023-03-22T13:38:33;100648.53;;;14.39;74.79
61086;BME280;46967;48.876;2.136;2023-03-22T13:41:07;100642.03;;;14.48;75.10
61086;BME280;46967;48.876;2.136;2023-03-22T13:43:45;100644.31;;;14.54;74.79
61086;BME280;46967;48.876;2.136;2023-03-22T13:54:16;100623.75;;;14.48;75.93
61086;BME280;46967;48.876;2.136;2023-03-22T13:59:56;100619.56;;;14.26;75.43
61086;BME280;46967;48.876;2.136;2023-03-22T14:02:28;100623.38;;;14.19;77.30
61086;BME280;46967;48.876;2.136;2023-03-22T14:05:02;100608.28;;;14.26;76.53
61086;BME280;46967;48.876;2.136;2023-03-22T14:07:51;100607.88;;;14.34;77.16
61086;BME280;46967;48.876;2.136;2023-03-22T14:10:23;100612.97;;;14.37;76.59
61086;BME280;46967;48.876;2.136;2023-03-22T14:13:01;100605.34;;;14.32;76.54
61086;BME280;46967;48.876;2.136;2023-03-22T14:15:32;100603.91;;;14.26;76.53
61086;BME280;46967;48.876;2.136;2023-03-22T14:18:03;100603.47;;;14.36;76.86
61086;BME280;46967;48.876;2.136;2023-03-22T14:20:33;100602.31;;;14.41;76.09
61086;BME280;46967;48.876;2.136;2023-03-22T14:23:03;100591.72;;;14.44;75.11
61086;BME280;46967;48.876;2.136;2023-03-22T14:25:32;100601.09;;;14.48;76.21
61086;BME280;46967;48.876;2.136;2023-03-22T14:27:58;100600.88;;;14.53;75.55
61086;BME280;46967;48.876;2.136;2023-03-22T14:32:58;100605.06;;;14.56;75.57
61086;BME280;46967;48.876;2.136;2023-03-22T14:35:38;100595.09;;;14.46;76.53
61086;BME280;46967;48.876;2.136;2023-03-22T14:38:13;100600.41;;;14.45;77.00
61086;BME280;46967;48.876;2.136;2023-03-22T14:40:39;100605.56;;;14.46;76.12
61086;BME280;46967;48.876;2.136;2023-03-22T14:45:47;100605.13;;;14.37;75.67
61086;BME280;46967;48.876;2.136;2023-03-22T14:50:46;100604.50;;;14.31;76.58
61086;BME280;46967;48.876;2.136;2023-03-22T14:53:13;100589.63;;;14.34;75.87